Time;durP1;ratioP1;P1;durP2;ratioP2;P2;SDS_P1;SDS_P2;PMS_P1;PMS_P2;Temp;Humidity;BMP_temperature;BMP_pressure;BME280_temperature;BME280_humidity;BME280_pressure;Samples;Min_cycle;Max_cycle;Signal;HPM_P1;HPM_P2
2023/12/27 00:01:38;;;;;;;23.00;8.87;;;5.20;99.90;;;;;;4986428;28;20056;-82
2023/12/27 00:04:04;;;;;;;17.37;8.37;;;5.20;99.90;;;;;;4984805;28;20045;-83
2023/12/27 00:06:29;;;;;;;18.97;8.93;;;5.20;99.90;;;;;;4986926;28;20049;-83
2023/12/27 00:08:55;;;;;;;17.33;9.10;;;5.20;99.90;;;;;;4985009;28;20041;-83
2023/12/27 00:11:21;;;;;;;18.97;10.30;;;5.20;99.90;;;;;;4987026;28;20026;-83
2023/12/27 00:13:46;;;;;;;22.03;10.80;;;5.20;99.90;;;;;;5001901;28;20015;-83
2023/12/27 00:16:12;;;;;;;20.17;10.27;;;5.10;99.90;;;;;;4986046;28;20027;-83
2023/12/27 00:18:38;;;;;;;25.33;11.47;;;5.10;99.90;;;;;;4986091;28;20015;-82
2023/12/27 00:21:04;;;;;;;21.47;10.20;;;5.10;99.90;;;;;;4985619;28;20030;-82
2023/12/27 00:23:29;;;;;;;20.23;11.00;;;5.10;99.90;;;;;;5003841;28;20034;-82
2023/12/27 00:25:56;;;;;;;21.07;11.77;;;5.10;99.90;;;;;;4985017;28;20022;-82
2023/12/27 00:28:21;;;;;;;21.80;11.73;;;5.00;99.90;;;;;;4986715;28;20370;-82
2023/12/27 00:30:49;;;;;;;16.60;10.50;;;5.00;99.90;;;;;;5002993;28;20086;-82
2023/12/27 00:33:15;;;;;;;21.47;12.73;;;5.00;99.90;;;;;;4986076;28;20129;-83
2023/12/27 00:35:41;;;;;;;23.43;13.10;;;4.90;99.90;;;;;;4963271;28;1143815;-82
2023/12/27 00:38:07;;;;;;;25.53;12.10;;;4.90;99.90;;;;;;5002579;28;20066;-81
2023/12/27 00:40:33;;;;;;;25.07;13.27;;;4.90;99.90;;;;;;4989493;28;20086;-82
2023/12/27 00:42:58;;;;;;;24.33;11.93;;;4.80;99.90;;;;;;5005911;28;20090;-82
2023/12/27 00:45:24;;;;;;;22.63;12.00;;;4.80;99.90;;;;;;4987764;28;20026;-83
2023/12/27 00:47:50;;;;;;;24.87;13.83;;;4.70;99.90;;;;;;5003198;28;20382;-83
2023/12/27 00:50:16;;;;;;;30.00;12.57;;;4.80;99.90;;;;;;4986852;28;20026;-84
2023/12/27 00:52:42;;;;;;;22.43;11.83;;;4.70;99.90;;;;;;4985520;28;20029;-83
2023/12/27 00:55:07;;;;;;;23.83;12.20;;;4.70;99.90;;;;;;4986487;28;20029;-83
2023/12/27 00:57:33;;;;;;;27.97;11.63;;;4.70;99.90;;;;;;4986767;28;20030;-83
2023/12/27 00:59:59;;;;;;;26.30;12.60;;;4.60;99.90;;;;;;4985822;28;20060;-83
2023/12/27 01:02:25;;;;;;;23.63;12.23;;;4.60;99.90;;;;;;5004180;28;20033;-83
2023/12/27 01:04:52;;;;;;;26.70;12.03;;;4.60;99.90;;;;;;4985216;28;20026;-83
2023/12/27 01:07:20;;;;;;;23.83;12.60;;;4.60;99.90;;;;;;4986790;28;20414;-83
2023/12/27 01:09:46;;;;;;;20.43;11.80;;;4.60;99.90;;;;;;5003516;28;20437;-82
2023/12/27 01:12:11;;;;;;;20.37;11.60;;;4.60;99.90;;;;;;4986329;28;20046;-82
2023/12/27 01:14:37;;;;;;;21.57;11.53;;;4.60;99.90;;;;;;5003724;28;20019;-83
2023/12/27 01:17:03;;;;;;;27.50;11.93;;;4.60;99.90;;;;;;4985404;28;20068;-83
2023/12/27 01:19:28;;;;;;;19.70;10.80;;;4.50;99.90;;;;;;4986938;28;20026;-83
2023/12/27 01:21:54;;;;;;;25.93;11.83;;;4.50;99.90;;;;;;4984977;28;20048;-83
2023/12/27 01:24:20;;;;;;;22.90;11.83;;;4.40;99.90;;;;;;4986525;28;20045;-83
2023/12/27 01:26:45;;;;;;;25.10;11.37;;;4.50;99.90;;;;;;4988474;28;20029;-83
2023/12/27 01:29:11;;;;;;;19.63;10.50;;;4.50;99.90;;;;;;4998381;28;20053;-83
2023/12/27 01:31:37;;;;;;;26.17;11.70;;;4.50;99.90;;;;;;4985580;28;20029;-83
2023/12/27 01:34:02;;;;;;;18.57;11.57;;;4.50;99.90;;;;;;4985389;28;20058;-83
2023/12/27 01:36:28;;;;;;;26.87;11.80;;;4.50;99.90;;;;;;4986015;28;20034;-83
2023/12/27 01:38:54;;;;;;;20.57;11.07;;;4.50;99.90;;;;;;4984471;28;20366;-83
2023/12/27 01:41:19;;;;;;;27.00;11.77;;;4.50;99.90;;;;;;5003856;28;20106;-82
2023/12/27 01:43:45;;;;;;;21.67;12.17;;;4.50;99.90;;;;;;5001717;28;20049;-84
2023/12/27 01:46:12;;;;;;;22.17;11.07;;;4.50;99.90;;;;;;4985150;28;20022;-83
2023/12/27 01:48:39;;;;;;;24.03;12.80;;;4.60;99.90;;;;;;4984905;28;20018;-84
2023/12/27 01:51:05;;;;;;;26.30;12.53;;;4.50;99.90;;;;;;4985275;28;20536;-83
2023/12/27 01:53:30;;;;;;;21.00;11.80;;;4.50;99.90;;;;;;4985863;28;20085;-83
2023/12/27 01:55:56;;;;;;;21.60;10.37;;;4.60;99.90;;;;;;4984695;28;20102;-84
2023/12/27 01:58:22;;;;;;;19.10;10.63;;;4.60;99.90;;;;;;4985925;28;20061;-83
2023/12/27 02:00:48;;;;;;;22.70;11.17;;;4.50;99.90;;;;;;5001635;28;20026;-84
2023/12/27 02:03:14;;;;;;;19.83;10.87;;;4.60;99.90;;;;;;4985867;28;20054;-83
2023/12/27 02:05:41;;;;;;;22.20;11.73;;;4.60;99.90;;;;;;4984556;28;20033;-83
2023/12/27 02:08:08;;;;;;;21.87;11.87;;;4.60;99.90;;;;;;4985332;28;20026;-83
2023/12/27 02:10:34;;;;;;;22.63;10.70;;;4.60;99.90;;;;;;5002791;28;20042;-83
2023/12/27 02:13:07;;;;;;;24.90;10.93;;;4.60;99.90;;;;;;4983936;28;20023;-83
2023/12/27 02:15:39;;;;;;;24.63;11.03;;;4.50;99.90;;;;;;4985993;28;20442;-84
2023/12/27 02:18:07;;;;;;;21.20;10.40;;;4.60;99.90;;;;;;4983869;28;20022;-83
2023/12/27 02:20:34;;;;;;;21.33;9.73;;;4.50;99.90;;;;;;4985606;28;20015;-83
2023/12/27 02:23:04;;;;;;;21.00;10.47;;;4.60;99.90;;;;;;4984593;28;20050;-84
2023/12/27 02:25:30;;;;;;;21.33;10.63;;;4.60;99.90;;;;;;4984809;28;20064;-84
2023/12/27 02:27:56;;;;;;;21.17;11.73;;;4.60;99.90;;;;;;4985110;28;20038;-83
2023/12/27 02:30:23;;;;;;;21.97;9.67;;;4.60;99.90;;;;;;4983541;28;20113;-84
2023/12/27 02:32:49;;;;;;;22.77;10.57;;;4.60;99.90;;;;;;4985668;28;20018;-83
2023/12/27 02:35:16;;;;;;;18.53;10.13;;;4.50;99.90;;;;;;4983033;28;20050;-83
2023/12/27 02:37:42;;;;;;;19.87;9.23;;;4.50;99.90;;;;;;4985396;28;20014;-82
2023/12/27 02:40:08;;;;;;;21.93;9.97;;;4.50;99.90;;;;;;4984387;28;20033;-82
2023/12/27 02:42:38;;;;;;;20.23;9.97;;;4.60;99.90;;;;;;4984773;28;20080;-83
2023/12/27 02:45:06;;;;;;;22.33;9.87;;;4.50;99.90;;;;;;4984957;28;20065;-83
2023/12/27 02:47:32;;;;;;;22.83;10.13;;;4.50;99.90;;;;;;4983825;28;20022;-83
2023/12/27 02:49:57;;;;;;;21.10;9.20;;;4.50;99.90;;;;;;4985364;28;20033;-83
2023/12/27 02:52:23;;;;;;;20.93;9.53;;;4.50;99.90;;;;;;4983883;28;20030;-83
2023/12/27 02:54:48;;;;;;;20.10;8.77;;;4.60;99.90;;;;;;5002966;28;20026;-83
2023/12/27 02:57:14;;;;;;;20.13;9.67;;;4.50;99.90;;;;;;4983681;28;20487;-83
2023/12/27 02:59:41;;;;;;;18.70;9.20;;;4.60;99.90;;;;;;4984682;28;20506;-83
2023/12/27 03:02:06;;;;;;;19.70;9.60;;;4.60;99.90;;;;;;4984966;28;20030;-82
2023/12/27 03:04:32;;;;;;;22.97;9.40;;;4.60;99.90;;;;;;5001682;28;20109;-82
2023/12/27 03:06:58;;;;;;;16.87;8.73;;;4.60;99.90;;;;;;4984881;28;20105;-81
2023/12/27 03:09:24;;;;;;;21.17;9.67;;;4.60;99.90;;;;;;4983282;28;20026;-83
2023/12/27 03:11:51;;;;;;;20.80;9.27;;;4.60;99.90;;;;;;4984853;28;20022;-81
2023/12/27 03:14:17;;;;;;;18.80;9.63;;;4.60;99.90;;;;;;4983545;28;20356;-83
2023/12/27 03:16:43;;;;;;;19.40;9.73;;;4.60;99.90;;;;;;4984757;28;20041;-83
2023/12/27 03:19:08;;;;;;;20.40;9.80;;;4.60;99.90;;;;;;5002281;28;20058;-82
2023/12/27 03:21:34;;;;;;;20.90;9.30;;;4.70;99.90;;;;;;4983501;28;20065;-82
2023/12/27 03:24:00;;;;;;;18.93;9.50;;;4.70;99.90;;;;;;5002431;28;20034;-82
2023/12/27 03:26:26;;;;;;;18.67;9.93;;;4.70;99.90;;;;;;4982847;28;20433;-83
2023/12/27 03:28:51;;;;;;;20.93;9.40;;;4.70;99.90;;;;;;4984686;28;20033;-82
2023/12/27 03:31:17;;;;;;;20.27;9.70;;;4.80;99.90;;;;;;4983353;28;20391;-83
2023/12/27 03:33:43;;;;;;;22.43;9.43;;;4.80;99.90;;;;;;4984064;28;20030;-83
2023/12/27 03:36:08;;;;;;;16.87;8.93;;;4.70;99.90;;;;;;4983988;28;20022;-83
2023/12/27 03:38:34;;;;;;;17.37;9.13;;;4.80;99.90;;;;;;4983822;28;20046;-83
2023/12/27 03:41:00;;;;;;;19.00;9.43;;;4.80;99.90;;;;;;4986410;28;20463;-82
2023/12/27 03:43:26;;;;;;;21.33;9.27;;;4.80;99.90;;;;;;4984387;28;20459;-82
2023/12/27 03:45:54;;;;;;;17.23;9.33;;;4.80;99.90;;;;;;4984865;28;20026;-83
2023/12/27 03:48:20;;;;;;;19.70;8.60;;;4.90;99.90;;;;;;4983110;28;20030;-82
2023/12/27 03:50:47;;;;;;;19.00;9.17;;;4.80;99.90;;;;;;4984403;28;20053;-82
2023/12/27 03:53:12;;;;;;;19.53;9.17;;;4.90;99.90;;;;;;4983824;28;20026;-83
2023/12/27 03:55:41;;;;;;;19.67;9.00;;;4.90;99.90;;;;;;4983117;28;20604;-84
2023/12/27 03:58:07;;;;;;;20.43;8.43;;;4.90;99.90;;;;;;4984144;28;20034;-83
2023/12/27 04:00:32;;;;;;;17.37;8.27;;;4.90;99.90;;;;;;4982852;28;20553;-83
2023/12/27 04:02:58;;;;;;;23.50;9.27;;;4.90;99.90;;;;;;5002180;28;20081;-83
2023/12/27 04:05:23;;;;;;;16.00;8.60;;;5.00;99.90;;;;;;4982838;28;20059;-82
2023/12/27 04:07:49;;;;;;;18.80;9.17;;;5.00;99.90;;;;;;4984890;28;20046;-83
2023/12/27 04:10:15;;;;;;;21.47;8.63;;;5.00;99.90;;;;;;4986642;28;20034;-84
2023/12/27 04:12:41;;;;;;;19.40;8.40;;;5.00;99.90;;;;;;4994222;28;20048;-84
2023/12/27 04:15:07;;;;;;;20.30;8.87;;;5.00;99.90;;;;;;4987945;28;20031;-83
2023/12/27 04:17:33;;;;;;;22.83;8.10;;;5.10;99.90;;;;;;5002108;28;20049;-83
2023/12/27 04:19:58;;;;;;;22.10;9.13;;;5.00;99.90;;;;;;4988214;28;20026;-83
2023/12/27 04:22:24;;;;;;;20.17;9.10;;;5.10;99.90;;;;;;4985836;28;20033;-83
2023/12/27 04:24:50;;;;;;;20.50;9.20;;;5.10;99.90;;;;;;5005182;28;20029;-84
2023/12/27 04:27:15;;;;;;;23.93;8.70;;;5.10;99.90;;;;;;4970368;28;20041;-83
2023/12/27 04:29:41;;;;;;;19.63;8.73;;;5.10;99.90;;;;;;5004841;28;20081;-83
2023/12/27 04:32:07;;;;;;;21.57;8.83;;;5.10;99.90;;;;;;4987025;28;20038;-84
2023/12/27 04:34:32;;;;;;;21.00;9.40;;;5.20;99.90;;;;;;4985761;28;20050;-83
2023/12/27 04:36:58;;;;;;;15.90;8.17;;;5.20;99.90;;;;;;4987637;28;20026;-83
2023/12/27 04:39:24;;;;;;;15.83;8.03;;;5.20;99.90;;;;;;5001744;28;20049;-84
2023/12/27 04:41:49;;;;;;;16.50;7.87;;;5.20;99.90;;;;;;4987220;28;20018;-83
2023/12/27 04:44:15;;;;;;;21.90;9.07;;;5.20;99.90;;;;;;4985591;28;20490;-83
2023/12/27 04:46:41;;;;;;;14.73;8.60;;;5.30;99.90;;;;;;4987080;28;20026;-83
2023/12/27 04:49:09;;;;;;;18.53;8.80;;;5.30;99.90;;;;;;4986805;28;20041;-84
2023/12/27 04:51:35;;;;;;;23.23;9.00;;;5.30;99.90;;;;;;5002264;28;20031;-84
2023/12/27 04:54:02;;;;;;;19.80;9.17;;;5.30;99.90;;;;;;4987284;28;20030;-83
2023/12/27 04:56:28;;;;;;;19.37;9.40;;;5.40;99.90;;;;;;4985047;28;20026;-83
2023/12/27 04:58:54;;;;;;;22.80;10.00;;;5.40;99.90;;;;;;4987222;28;20025;-84
2023/12/27 05:01:20;;;;;;;20.97;9.17;;;5.40;99.90;;;;;;4985928;28;20030;-84
2023/12/27 05:03:46;;;;;;;18.07;9.00;;;5.50;99.90;;;;;;4986924;28;20034;-83
2023/12/27 05:06:12;;;;;;;24.80;9.17;;;5.40;99.90;;;;;;4986326;28;20494;-84
2023/12/27 05:08:39;;;;;;;19.70;9.73;;;5.50;99.90;;;;;;4986010;28;20014;-83
2023/12/27 05:11:11;;;;;;;22.13;9.10;;;5.50;99.90;;;;;;4986520;28;20050;-84
2023/12/27 05:13:37;;;;;;;15.80;9.33;;;5.50;99.90;;;;;;4985143;28;20037;-83
2023/12/27 05:16:12;;;;;;;22.70;10.50;;;5.50;99.90;;;;;;4987247;28;20074;-84
2023/12/27 05:18:39;;;;;;;24.87;10.30;;;5.50;99.90;;;;;;4985218;28;20022;-84
2023/12/27 05:21:06;;;;;;;20.40;9.47;;;5.60;99.90;;;;;;4985109;28;20022;-84
2023/12/27 05:23:32;;;;;;;28.93;10.83;;;5.60;99.90;;;;;;5003472;28;20038;-84
2023/12/27 05:25:58;;;;;;;22.37;9.97;;;5.60;99.90;;;;;;4985331;28;20065;-83
2023/12/27 05:28:23;;;;;;;21.80;10.47;;;5.60;99.90;;;;;;4986677;28;20030;-84
2023/12/27 05:30:49;;;;;;;21.40;10.50;;;5.60;99.90;;;;;;4984815;28;20022;-83
2023/12/27 05:33:15;;;;;;;20.67;9.63;;;5.60;99.90;;;;;;4986801;28;20042;-84
2023/12/27 05:35:41;;;;;;;23.57;10.47;;;5.60;99.90;;;;;;4984224;28;20050;-84
2023/12/27 05:38:07;;;;;;;20.57;9.40;;;5.60;99.90;;;;;;5002394;28;20434;-83
2023/12/27 05:40:32;;;;;;;21.00;9.20;;;5.70;99.90;;;;;;4985747;28;20048;-83
2023/12/27 05:42:58;;;;;;;21.70;10.83;;;5.70;99.90;;;;;;4985388;28;20049;-83
2023/12/27 05:45:24;;;;;;;18.73;8.83;;;5.70;99.90;;;;;;4985879;28;20018;-83
2023/12/27 05:47:50;;;;;;;28.97;9.40;;;5.80;99.90;;;;;;5002245;28;20027;-84
2023/12/27 05:50:16;;;;;;;21.23;9.70;;;5.80;99.90;;;;;;4986202;28;20030;-84
2023/12/27 05:52:42;;;;;;;22.00;8.70;;;5.80;99.90;;;;;;4984105;28;20018;-83
2023/12/27 05:55:07;;;;;;;25.23;9.93;;;5.80;99.90;;;;;;4986118;28;20451;-83
2023/12/27 05:57:33;;;;;;;25.77;9.67;;;5.80;99.90;;;;;;5002616;28;20041;-83
2023/12/27 05:59:59;;;;;;;25.60;8.87;;;5.80;99.90;;;;;;4985518;28;20071;-83
2023/12/27 06:02:25;;;;;;;23.00;9.33;;;5.90;99.90;;;;;;4985760;28;20014;-83
2023/12/27 06:04:51;;;;;;;20.27;8.70;;;5.90;99.90;;;;;;4984530;28;20086;-84
2023/12/27 06:07:16;;;;;;;23.13;9.63;;;5.90;99.90;;;;;;4985391;28;20038;-84
2023/12/27 06:09:42;;;;;;;15.47;8.03;;;5.90;99.90;;;;;;4984324;28;20032;-84
2023/12/27 06:12:08;;;;;;;20.07;8.33;;;5.90;99.90;;;;;;4985607;28;20114;-84
2023/12/27 06:14:35;;;;;;;25.67;9.27;;;6.00;99.90;;;;;;4984675;28;20018;-83
2023/12/27 06:17:01;;;;;;;19.80;8.80;;;5.90;99.90;;;;;;4985364;28;20482;-83
2023/12/27 06:19:36;;;;;;;20.00;8.67;;;6.00;99.90;;;;;;5001460;28;20030;-83
2023/12/27 06:22:02;;;;;;;24.03;9.83;;;6.10;99.90;;;;;;4983986;28;20447;-84
2023/12/27 06:24:28;;;;;;;20.50;8.50;;;6.00;99.90;;;;;;4985713;28;20039;-83
2023/12/27 06:26:54;;;;;;;20.67;8.67;;;6.10;99.90;;;;;;4983766;28;20049;-83
2023/12/27 06:29:19;;;;;;;19.13;8.40;;;6.10;99.90;;;;;;4985462;28;20027;-83
2023/12/27 06:31:45;;;;;;;24.40;9.13;;;6.20;99.90;;;;;;4985238;28;20518;-83
2023/12/27 06:34:11;;;;;;;18.20;8.33;;;6.20;99.90;;;;;;5007166;28;20137;-83
2023/12/27 06:36:38;;;;;;;19.57;8.80;;;6.20;99.90;;;;;;5006852;28;20175;-83
2023/12/27 06:39:06;;;;;;;16.90;7.60;;;6.20;99.90;;;;;;5000529;28;20034;-84
2023/12/27 06:41:32;;;;;;;20.43;8.17;;;6.20;99.90;;;;;;5004019;28;20026;-84
2023/12/27 06:43:57;;;;;;;18.83;8.47;;;6.20;99.90;;;;;;5002010;28;20038;-83
2023/12/27 06:46:23;;;;;;;17.37;8.53;;;6.20;99.90;;;;;;5002845;28;20086;-85
2023/12/27 06:48:49;;;;;;;20.07;7.30;;;6.30;99.90;;;;;;5000337;28;20025;-84
2023/12/27 06:51:14;;;;;;;20.33;8.37;;;6.30;99.90;;;;;;5002319;28;20029;-84
2023/12/27 06:53:40;;;;;;;22.13;8.37;;;6.30;99.90;;;;;;5000957;28;20022;-84
2023/12/27 06:56:06;;;;;;;19.30;7.63;;;6.30;99.90;;;;;;4999984;28;20098;-83
2023/12/27 06:58:32;;;;;;;19.50;7.57;;;6.40;99.90;;;;;;5001105;28;20045;-83
2023/12/27 07:00:57;;;;;;;17.13;7.83;;;6.40;99.90;;;;;;5000999;28;20485;-83
2023/12/27 07:03:25;;;;;;;23.13;8.03;;;6.40;99.90;;;;;;5001490;28;20176;-83
2023/12/27 07:05:51;;;;;;;21.33;8.30;;;6.40;99.90;;;;;;4999640;28;20030;-83
2023/12/27 07:08:16;;;;;;;24.97;9.27;;;6.40;99.90;;;;;;5001114;28;20018;-83
2023/12/27 07:10:42;;;;;;;22.40;7.97;;;6.50;99.90;;;;;;5000588;28;20499;-84
2023/12/27 07:13:08;;;;;;;19.97;8.10;;;6.50;99.90;;;;;;5000578;28;20576;-83
2023/12/27 07:15:35;;;;;;;23.07;8.00;;;6.50;99.90;;;;;;5002401;28;20023;-83
2023/12/27 07:18:01;;;;;;;20.03;8.97;;;6.50;99.90;;;;;;4999224;28;20022;-83
2023/12/27 07:20:26;;;;;;;18.07;8.00;;;6.50;99.90;;;;;;5001400;28;20026;-83
2023/12/27 07:22:53;;;;;;;27.97;8.90;;;6.60;99.90;;;;;;5000983;28;20088;-83
2023/12/27 07:25:19;;;;;;;21.67;9.03;;;6.60;99.90;;;;;;5001356;28;20022;-83
2023/12/27 07:27:45;;;;;;;23.57;9.90;;;6.60;99.90;;;;;;5002044;28;20073;-83
2023/12/27 07:30:11;;;;;;;26.27;8.23;;;6.60;99.90;;;;;;5000817;28;20428;-83
2023/12/27 07:32:38;;;;;;;23.27;8.47;;;6.60;99.90;;;;;;4984079;28;20104;-83
2023/12/27 07:35:04;;;;;;;21.93;8.63;;;6.60;99.90;;;;;;4999035;28;20566;-82
2023/12/27 07:37:31;;;;;;;15.67;9.00;;;6.60;99.90;;;;;;5002496;28;20072;-83
2023/12/27 07:39:56;;;;;;;17.97;8.27;;;6.60;99.90;;;;;;5000635;28;20027;-85
2023/12/27 07:42:22;;;;;;;15.93;8.40;;;6.60;99.90;;;;;;5000844;28;20034;-81
2023/12/27 07:44:48;;;;;;;19.30;8.30;;;6.70;99.90;;;;;;5003841;28;20050;-89
2023/12/27 07:47:14;;;;;;;29.37;10.00;;;6.70;99.90;;;;;;5003723;28;20044;-82
2023/12/27 07:49:39;;;;;;;19.13;8.43;;;6.70;99.90;;;;;;5022540;28;20374;-82
2023/12/27 07:52:05;;;;;;;21.70;10.17;;;6.70;99.90;;;;;;5024347;28;20458;-82
2023/12/27 07:54:31;;;;;;;25.47;9.43;;;6.70;99.90;;;;;;5002843;28;20022;-82
2023/12/27 07:56:57;;;;;;;16.83;8.83;;;6.70;99.90;;;;;;5001991;28;20703;-82
2023/12/27 07:59:23;;;;;;;20.27;9.50;;;6.70;99.90;;;;;;5001928;28;20023;-82
2023/12/27 08:01:49;;;;;;;22.60;8.27;;;6.70;99.90;;;;;;5001573;28;20029;-82
2023/12/27 08:04:14;;;;;;;24.33;10.10;;;6.80;99.90;;;;;;5004145;28;20065;-82
2023/12/27 08:06:40;;;;;;;23.47;9.37;;;6.70;99.90;;;;;;5003279;28;20083;-82
2023/12/27 08:09:07;;;;;;;20.57;9.20;;;6.70;99.90;;;;;;5003115;28;20025;-81
2023/12/27 08:11:33;;;;;;;25.47;9.77;;;6.70;99.90;;;;;;5004771;28;20022;-81
2023/12/27 08:13:58;;;;;;;20.17;8.80;;;6.70;99.90;;;;;;5002442;28;20022;-81
2023/12/27 08:16:24;;;;;;;22.43;9.03;;;6.70;99.90;;;;;;5003709;28;20026;-83
2023/12/27 08:18:50;;;;;;;21.60;8.47;;;6.80;99.90;;;;;;4999663;28;20394;-82
2023/12/27 08:21:16;;;;;;;24.80;10.03;;;6.80;99.90;;;;;;5003318;28;20082;-82
2023/12/27 08:23:42;;;;;;;19.70;8.20;;;6.80;99.90;;;;;;5004613;28;20038;-82
2023/12/27 08:26:08;;;;;;;16.60;7.70;;;6.80;99.90;;;;;;5003642;28;20117;-81
2023/12/27 08:28:35;;;;;;;17.67;8.13;;;6.80;99.90;;;;;;5004183;28;20030;-81
2023/12/27 08:31:04;;;;;;;20.53;8.17;;;6.80;99.90;;;;;;5003507;28;20030;-82
2023/12/27 08:33:31;;;;;;;17.53;8.97;;;6.80;99.90;;;;;;5004297;28;20030;-81
2023/12/27 08:35:59;;;;;;;24.63;10.10;;;6.80;99.90;;;;;;5002163;28;20089;-81
2023/12/27 08:38:25;;;;;;;19.60;8.17;;;6.80;99.90;;;;;;5004001;28;20026;-80
2023/12/27 08:40:51;;;;;;;14.00;8.60;;;6.80;99.90;;;;;;5002992;28;20478;-82
2023/12/27 08:43:18;;;;;;;15.57;7.87;;;6.80;99.90;;;;;;5003031;28;20065;-82
2023/12/27 08:45:45;;;;;;;15.90;7.80;;;6.90;99.90;;;;;;5003091;28;20030;-83
2023/12/27 08:48:10;;;;;;;18.83;7.73;;;6.80;99.90;;;;;;5002380;28;20022;-84
2023/12/27 08:50:36;;;;;;;17.67;9.47;;;6.80;99.90;;;;;;5004193;28;20113;-84
2023/12/27 08:53:02;;;;;;;16.00;8.47;;;6.90;99.90;;;;;;5002757;28;20046;-83
2023/12/27 08:55:28;;;;;;;16.37;7.63;;;6.90;99.90;;;;;;5003017;28;20053;-83
2023/12/27 08:57:53;;;;;;;13.30;7.40;;;6.90;99.90;;;;;;5004162;28;20045;-82
2023/12/27 09:00:19;;;;;;;17.90;8.73;;;6.90;99.90;;;;;;5002333;28;20078;-82
2023/12/27 09:02:46;;;;;;;13.67;8.63;;;6.90;99.90;;;;;;5003170;28;20057;-82
2023/12/27 09:05:12;;;;;;;12.67;7.40;;;6.90;99.90;;;;;;5002563;28;20011;-87
2023/12/27 09:07:38;;;;;;;16.73;8.50;;;7.00;99.90;;;;;;5004978;28;20505;-83
2023/12/27 09:10:04;;;;;;;15.63;8.47;;;7.00;99.90;;;;;;5002210;28;20015;-86
2023/12/27 09:12:31;;;;;;;14.40;8.33;;;7.00;99.90;;;;;;5003197;28;20034;-83
2023/12/27 09:14:57;;;;;;;16.47;8.60;;;7.10;99.90;;;;;;5002200;28;20038;-82
2023/12/27 09:17:23;;;;;;;14.73;7.87;;;7.10;99.90;;;;;;5003604;28;20121;-82
2023/12/27 09:19:49;;;;;;;13.70;8.37;;;7.10;99.90;;;;;;5002079;28;20030;-82
2023/12/27 09:22:15;;;;;;;16.70;8.07;;;7.20;99.90;;;;;;5001559;28;20117;-81
2023/12/27 09:24:43;;;;;;;14.43;7.60;;;7.20;99.90;;;;;;5002775;28;20033;-80
2023/12/27 09:27:13;;;;;;;14.43;8.00;;;7.20;99.90;;;;;;5000892;28;20018;-82
2023/12/27 09:29:39;;;;;;;15.43;8.23;;;7.20;99.90;;;;;;5001296;28;20031;-82
2023/12/27 09:32:05;;;;;;;11.77;7.10;;;7.30;99.90;;;;;;5002651;28;20113;-82
2023/12/27 09:34:31;;;;;;;15.70;7.77;;;7.30;99.90;;;;;;5001360;28;20132;-82
2023/12/27 09:36:56;;;;;;;14.47;7.77;;;7.30;99.90;;;;;;5001653;28;20479;-81
2023/12/27 09:39:22;;;;;;;12.23;7.27;;;7.30;99.90;;;;;;5003000;28;20032;-81
2023/12/27 09:41:49;;;;;;;14.97;7.97;;;7.40;99.90;;;;;;5005226;28;20071;-81
2023/12/27 09:44:18;;;;;;;12.30;6.87;;;7.40;99.90;;;;;;5003456;28;20042;-80
2023/12/27 09:46:44;;;;;;;14.67;6.80;;;7.50;99.90;;;;;;5003034;28;20027;-81
2023/12/27 09:49:12;;;;;;;11.70;7.17;;;7.50;99.90;;;;;;5002904;28;20026;-81
2023/12/27 09:51:39;;;;;;;10.97;6.17;;;7.60;99.90;;;;;;5003666;28;20026;-81
2023/12/27 09:54:05;;;;;;;10.87;6.60;;;7.60;99.90;;;;;;5002235;28;20030;-81
2023/12/27 09:56:32;;;;;;;11.97;6.53;;;7.60;99.90;;;;;;5001210;28;20022;-81
2023/12/27 09:59:06;;;;;;;12.23;6.90;;;7.70;99.90;;;;;;5001731;28;20105;-81
2023/12/27 10:01:37;;;;;;;10.90;6.50;;;7.70;99.90;;;;;;5000253;28;20026;-81
2023/12/27 10:04:27;;;;;;;11.60;6.10;;;7.80;99.90;;;;;;5001955;28;20498;-81
2023/12/27 10:06:53;;;;;;;10.63;6.70;;;7.80;99.90;;;;;;4999770;28;20038;-82
2023/12/27 10:09:19;;;;;;;11.80;7.50;;;7.90;99.90;;;;;;5002479;28;20030;-80
2023/12/27 10:11:45;;;;;;;12.27;7.27;;;7.90;99.90;;;;;;5002247;28;20026;-82
2023/12/27 10:14:13;;;;;;;13.23;6.93;;;8.00;99.90;;;;;;5000253;28;20026;-82
2023/12/27 10:16:38;;;;;;;9.80;6.13;;;8.00;99.90;;;;;;5002297;28;20074;-82
2023/12/27 10:19:05;;;;;;;11.03;6.63;;;8.00;99.90;;;;;;5000784;28;20022;-82
2023/12/27 10:21:43;;;;;;;13.50;7.47;;;8.00;99.90;;;;;;5001383;28;20053;-82
2023/12/27 10:24:12;;;;;;;10.83;6.77;;;8.10;99.90;;;;;;5001344;28;20493;-82
2023/12/27 10:26:38;;;;;;;10.03;7.13;;;8.10;99.90;;;;;;5000453;28;20165;-82
2023/12/27 10:29:07;;;;;;;12.57;6.60;;;8.10;99.90;;;;;;5003371;28;20455;-82
2023/12/27 10:31:33;;;;;;;11.60;6.40;;;8.10;99.90;;;;;;5001645;28;20050;-82
2023/12/27 10:34:03;;;;;;;11.53;7.03;;;8.20;99.90;;;;;;5002324;28;20046;-83
2023/12/27 10:36:38;;;;;;;13.03;6.73;;;8.20;99.90;;;;;;5003289;28;20018;-83
2023/12/27 10:39:05;;;;;;;11.33;7.27;;;8.20;99.90;;;;;;5004515;28;20147;-83
2023/12/27 10:41:37;;;;;;;10.47;6.60;;;8.20;99.90;;;;;;5004539;28;20022;-83
2023/12/27 10:44:04;;;;;;;13.00;7.10;;;8.20;99.90;;;;;;5003394;28;20033;-82
2023/12/27 10:46:31;;;;;;;10.47;6.63;;;8.30;99.90;;;;;;5004066;28;20022;-82
2023/12/27 10:49:02;;;;;;;12.07;7.00;;;8.20;99.90;;;;;;5002868;28;20067;-82
2023/12/27 10:51:29;;;;;;;10.67;6.30;;;8.30;99.90;;;;;;5021891;28;20021;-82
2023/12/27 10:54:00;;;;;;;9.43;6.00;;;8.30;99.90;;;;;;5003371;28;20021;-82
2023/12/27 10:56:26;;;;;;;11.70;6.30;;;8.30;99.90;;;;;;5003590;28;20432;-82
2023/12/27 10:58:52;;;;;;;9.57;6.50;;;8.40;99.90;;;;;;5004492;28;20021;-82
2023/12/27 11:01:19;;;;;;;12.27;6.13;;;8.40;99.90;;;;;;5003160;28;20076;-82
2023/12/27 11:03:49;;;;;;;9.37;5.80;;;8.40;99.90;;;;;;5022552;28;20060;-82
2023/12/27 11:06:19;;;;;;;10.03;5.80;;;8.40;99.90;;;;;;5003210;28;20314;-82
2023/12/27 11:08:45;;;;;;;7.60;4.30;;;8.50;99.90;;;;;;5021815;28;20029;-82
2023/12/27 11:11:15;;;;;;;6.90;4.43;;;8.50;99.90;;;;;;5003239;28;20033;-83
2023/12/27 11:13:42;;;;;;;10.77;4.43;;;8.60;99.90;;;;;;5003454;28;20030;-81
2023/12/27 11:16:09;;;;;;;9.70;4.57;;;8.60;99.90;;;;;;5004571;28;20022;-82
2023/12/27 11:18:38;;;;;;;11.27;4.63;;;8.60;99.90;;;;;;5006355;28;20034;-82
2023/12/27 11:21:04;;;;;;;7.97;4.37;;;8.70;99.90;;;;;;5008810;28;20033;-83
2023/12/27 11:23:30;;;;;;;10.57;4.67;;;8.70;99.90;;;;;;5007318;28;20032;-82
2023/12/27 11:25:59;;;;;;;9.20;3.70;;;8.70;99.90;;;;;;5007926;28;20030;-81
2023/12/27 11:28:25;;;;;;;8.50;3.90;;;8.80;99.90;;;;;;5007827;28;20026;-82
2023/12/27 11:30:52;;;;;;;7.80;4.30;;;8.80;99.90;;;;;;5007413;28;20057;-81
2023/12/27 11:33:24;;;;;;;8.43;4.57;;;8.80;99.90;;;;;;5008260;28;20033;-81
2023/12/27 11:35:51;;;;;;;8.00;4.07;;;8.90;99.90;;;;;;5006323;28;20049;-82
2023/12/27 11:38:20;;;;;;;9.93;4.27;;;8.90;99.90;;;;;;5007945;28;20022;-82
2023/12/27 11:40:47;;;;;;;8.83;3.63;;;8.90;99.90;;;;;;5006175;28;20030;-82
2023/12/27 11:43:56;;;;;;;8.17;3.73;;;9.00;99.90;;;;;;5007656;28;20034;-82
2023/12/27 11:46:30;;;;;;;10.57;4.57;;;9.00;99.90;;;;;;5008299;28;20540;-81
2023/12/27 11:48:58;;;;;;;9.98;4.07;;;9.00;99.90;;;;;;5006354;28;20440;-82
2023/12/27 11:51:32;;;;;;;8.07;3.37;;;9.00;99.90;;;;;;5007866;28;20107;-82
2023/12/27 11:53:58;;;;;;;10.15;3.95;;;9.10;99.90;;;;;;5006419;28;20056;-82
2023/12/27 11:56:31;;;;;;;8.27;4.30;;;9.10;99.90;;;;;;5007451;28;20018;-83
2023/12/27 11:58:59;;;;;;;11.93;4.97;;;9.10;99.90;;;;;;5007646;28;20430;-81
2023/12/27 12:01:36;;;;;;;10.00;3.57;;;9.20;99.90;;;;;;5005711;28;20284;-82
2023/12/27 12:04:35;;;;;;;7.23;3.60;;;9.20;99.90;;;;;;5007803;28;20093;-82
2023/12/27 12:07:35;;;;;;;7.83;3.20;;;9.20;99.90;;;;;;5006967;28;20024;-82
2023/12/27 12:10:01;;;;;;;10.10;3.73;;;9.30;99.90;;;;;;5023295;28;20068;-82
2023/12/27 12:12:27;;;;;;;7.53;3.30;;;9.30;99.90;;;;;;5023496;28;20030;-81
2023/12/27 12:14:54;;;;;;;9.93;3.87;;;9.30;99.90;;;;;;4987528;28;20104;-80
2023/12/27 12:17:21;;;;;;;7.53;3.90;;;9.40;99.90;;;;;;5019606;28;20103;-81
2023/12/27 12:19:49;;;;;;;10.13;3.77;;;9.40;99.90;;;;;;5005213;28;20026;-82
2023/12/27 12:22:15;;;;;;;9.70;3.50;;;9.40;99.90;;;;;;5005961;28;20028;-84
2023/12/27 12:24:44;;;;;;;7.57;3.07;;;9.40;99.90;;;;;;5006377;28;20042;-81
2023/12/27 12:27:14;;;;;;;5.60;2.93;;;9.40;99.90;;;;;;5020759;28;20053;-82
2023/12/27 12:29:40;;;;;;;5.00;2.80;;;9.50;99.90;;;;;;5023435;28;20018;-82
2023/12/27 12:32:07;;;;;;;6.60;2.80;;;9.50;99.90;;;;;;5005029;28;20041;-82
2023/12/27 12:34:33;;;;;;;6.63;3.00;;;9.50;99.90;;;;;;5006439;28;20065;-82
2023/12/27 12:37:00;;;;;;;6.20;2.50;;;9.50;99.90;;;;;;5006341;28;20034;-82
2023/12/27 12:39:27;;;;;;;6.13;2.97;;;9.60;99.90;;;;;;5006801;28;20034;-81
2023/12/27 12:41:53;;;;;;;7.07;2.97;;;9.60;99.90;;;;;;5008257;28;20041;-81
2023/12/27 12:44:19;;;;;;;9.00;2.50;;;9.60;99.90;;;;;;5005910;28;20037;-82